sensor_id;sensor_type;location;lat;lon;timestamp;pressure;altitude;pressure_sealevel;temperature;humidity
68712;BME280;55690;51.566;19.198;2023-09-07T00:03:36;102679.08;;;15.54;100.00
68712;BME280;55690;51.566;19.198;2023-09-07T00:07:42;102672.56;;;15.56;100.00
68712;BME280;55690;51.566;19.198;2023-09-07T00:11:48;102668.32;;;15.65;100.00
68712;BME280;55690;51.566;19.198;2023-09-07T00:15:58;102675.46;;;15.68;100.00
68712;BME280;55690;51.566;19.198;2023-09-07T00:20:01;102666.88;;;15.59;100.00
68712;BME280;55690;51.566;19.198;2023-09-07T00:24:14;102668.51;;;15.48;100.00
68712;BME280;55690;51.566;19.198;2023-09-07T00:28:17;102665.48;;;15.38;100.00
68712;BME280;55690;51.566;19.198;2023-09-07T00:32:19;102670.08;;;15.38;100.00
68712;BME280;55690;51.566;19.198;2023-09-07T00:36:25;102670.25;;;15.06;100.00
68712;BME280;55690;51.566;19.198;2023-09-07T00:40:31;102670.66;;;15.14;100.00
68712;BME280;55690;51.566;19.198;2023-09-07T00:44:37;102673.87;;;15.07;100.00
68712;BME280;55690;51.566;19.198;2023-09-07T00:48:43;102674.16;;;15.16;100.00
68712;BME280;55690;51.566;19.198;2023-09-07T00:52:50;102674.38;;;15.13;100.00
68712;BME280;55690;51.566;19.198;2023-09-07T00:56:56;102673.37;;;15.00;100.00
68712;BME280;55690;51.566;19.198;2023-09-07T01:01:02;102677.21;;;15.12;100.00
68712;BME280;55690;51.566;19.198;2023-09-07T01:05:08;102668.04;;;14.83;100.00
68712;BME280;55690;51.566;19.198;2023-09-07T01:09:19;102669.71;;;14.85;100.00
68712;BME280;55690;51.566;19.198;2023-09-07T01:13:20;102661.22;;;14.90;100.00
68712;BME280;55690;51.566;19.198;2023-09-07T01:17:28;102668.32;;;14.78;100.00
68712;BME280;55690;51.566;19.198;2023-09-07T01:21:38;102675.54;;;14.65;100.00
68712;BME280;55690;51.566;19.198;2023-09-07T01:25:40;102678.58;;;14.45;100.00
68712;BME280;55690;51.566;19.198;2023-09-07T01:29:45;102681.73;;;14.53;100.00
68712;BME280;55690;51.566;19.198;2023-09-07T01:33:51;102671.07;;;14.48;100.00
68712;BME280;55690;51.566;19.198;2023-09-07T01:37:58;102666.58;;;14.47;100.00
68712;BME280;55690;51.566;19.198;2023-09-07T01:42:04;102672.48;;;14.55;100.00
68712;BME280;55690;51.566;19.198;2023-09-07T01:46:10;102674.05;;;14.59;100.00
68712;BME280;55690;51.566;19.198;2023-09-07T01:50:16;102684.23;;;14.42;100.00
68712;BME280;55690;51.566;19.198;2023-09-07T01:54:22;102679.54;;;14.44;100.00
68712;BME280;55690;51.566;19.198;2023-09-07T01:58:28;102678.81;;;14.40;100.00
68712;BME280;55690;51.566;19.198;2023-09-07T02:02:34;102676.17;;;14.39;100.00
68712;BME280;55690;51.566;19.198;2023-09-07T02:06:41;102676.17;;;14.39;100.00
68712;BME280;55690;51.566;19.198;2023-09-07T02:10:47;102676.52;;;14.32;100.00
68712;BME280;55690;51.566;19.198;2023-09-07T02:14:53;102672.41;;;14.41;100.00
68712;BME280;55690;51.566;19.198;2023-09-07T02:19:02;102670.57;;;14.26;100.00
68712;BME280;55690;51.566;19.198;2023-09-07T02:23:05;102649.95;;;14.20;100.00
68712;BME280;55690;51.566;19.198;2023-09-07T02:27:12;102663.00;;;14.15;100.00
68712;BME280;55690;51.566;19.198;2023-09-07T02:31:18;102664.58;;;14.19;100.00
68712;BME280;55690;51.566;19.198;2023-09-07T02:35:24;102667.23;;;14.05;100.00
68712;BME280;55690;51.566;19.198;2023-09-07T02:39:30;102675.33;;;14.22;100.00
68712;BME280;55690;51.566;19.198;2023-09-07T02:43:36;102671.90;;;14.03;100.00
68712;BME280;55690;51.566;19.198;2023-09-07T02:47:42;102669.46;;;13.83;100.00
68712;BME280;55690;51.566;19.198;2023-09-07T02:51:48;102664.93;;;13.97;100.00
68712;BME280;55690;51.566;19.198;2023-09-07T02:55:55;102661.50;;;13.94;100.00
68712;BME280;55690;51.566;19.198;2023-09-07T03:00:01;102670.66;;;13.93;100.00
68712;BME280;55690;51.566;19.198;2023-09-07T03:04:10;102667.60;;;13.83;100.00
68712;BME280;55690;51.566;19.198;2023-09-07T03:08:13;102673.85;;;13.85;100.00
68712;BME280;55690;51.566;19.198;2023-09-07T03:12:19;102675.71;;;13.85;100.00
68712;BME280;55690;51.566;19.198;2023-09-07T03:16:26;102677.26;;;13.89;100.00
68712;BME280;55690;51.566;19.198;2023-09-07T03:20:35;102676.47;;;13.87;100.00
68712;BME280;55690;51.566;19.198;2023-09-07T03:24:38;102684.07;;;13.82;100.00
68712;BME280;55690;51.566;19.198;2023-09-07T03:28:44;102682.48;;;13.78;100.00
68712;BME280;55690;51.566;19.198;2023-09-07T03:32:50;102677.25;;;13.57;100.00
68712;BME280;55690;51.566;19.198;2023-09-07T03:36:56;102684.00;;;13.35;100.00
68712;BME280;55690;51.566;19.198;2023-09-07T03:41:03;102685.45;;;13.24;100.00
68712;BME280;55690;51.566;19.198;2023-09-07T03:45:09;102691.37;;;13.15;100.00
68712;BME280;55690;51.566;19.198;2023-09-07T03:49:15;102683.27;;;13.31;100.00
68712;BME280;55690;51.566;19.198;2023-09-07T03:53:21;102686.81;;;13.33;100.00
68712;BME280;55690;51.566;19.198;2023-09-07T03:57:27;102697.98;;;13.28;100.00
68712;BME280;55690;51.566;19.198;2023-09-07T04:01:33;102687.28;;;13.41;100.00
68712;BME280;55690;51.566;19.198;2023-09-07T04:05:40;102688.84;;;13.45;100.00
68712;BME280;55690;51.566;19.198;2023-09-07T04:09:46;102683.38;;;13.45;100.00
68712;BME280;55690;51.566;19.198;2023-09-07T04:13:52;102694.75;;;13.53;100.00
68712;BME280;55690;51.566;19.198;2023-09-07T04:17:58;102695.88;;;13.49;100.00
68712;BME280;55690;51.566;19.198;2023-09-07T04:22:04;102687.45;;;13.54;100.00
68712;BME280;55690;51.566;19.198;2023-09-07T04:26:11;102694.13;;;13.48;100.00
68712;BME280;55690;51.566;19.198;2023-09-07T04:30:17;102696.14;;;13.45;100.00
68712;BME280;55690;51.566;19.198;2023-09-07T04:34:23;102696.29;;;13.26;100.00
68712;BME280;55690;51.566;19.198;2023-09-07T04:38:29;102701.27;;;13.18;100.00
68712;BME280;55690;51.566;19.198;2023-09-07T04:42:36;102708.96;;;13.27;100.00
68712;BME280;55690;51.566;19.198;2023-09-07T04:46:41;102715.05;;;13.32;100.00
68712;BME280;55690;51.566;19.198;2023-09-07T04:50:48;102708.77;;;13.13;100.00
68712;BME280;55690;51.566;19.198;2023-09-07T04:54:54;102722.77;;;13.24;100.00
68712;BME280;55690;51.566;19.198;2023-09-07T04:59:00;102716.58;;;13.38;100.00
68712;BME280;55690;51.566;19.198;2023-09-07T05:03:06;102716.17;;;13.61;100.00
68712;BME280;55690;51.566;19.198;2023-09-07T05:07:12;102711.89;;;13.73;100.00
68712;BME280;55690;51.566;19.198;2023-09-07T05:11:18;102714.61;;;13.88;100.00
68712;BME280;55690;51.566;19.198;2023-09-07T05:15:25;102716.31;;;14.07;100.00
68712;BME280;55690;51.566;19.198;2023-09-07T05:19:31;102716.84;;;14.29;100.00
68712;BME280;55690;51.566;19.198;2023-09-07T05:23:37;102728.64;;;14.61;100.00
68712;BME280;55690;51.566;19.198;2023-09-07T05:27:43;102725.76;;;14.78;100.00
68712;BME280;55690;51.566;19.198;2023-09-07T05:31:49;102726.37;;;15.13;100.00
68712;BME280;55690;51.566;19.198;2023-09-07T05:35:55;102724.73;;;15.39;100.00
68712;BME280;55690;51.566;19.198;2023-09-07T05:40:02;102732.75;;;15.42;100.00
68712;BME280;55690;51.566;19.198;2023-09-07T05:44:08;102730.13;;;15.55;100.00
68712;BME280;55690;51.566;19.198;2023-09-07T05:48:14;102735.51;;;15.71;100.00
68712;BME280;55690;51.566;19.198;2023-09-07T05:52:20;102736.70;;;15.95;100.00
68712;BME280;55690;51.566;19.198;2023-09-07T05:56:26;102732.05;;;16.10;100.00
68712;BME280;55690;51.566;19.198;2023-09-07T06:00:34;102735.55;;;16.26;100.00
68712;BME280;55690;51.566;19.198;2023-09-07T06:04:39;102731.79;;;16.41;100.00
68712;BME280;55690;51.566;19.198;2023-09-07T06:08:45;102740.61;;;16.59;100.00
68712;BME280;55690;51.566;19.198;2023-09-07T06:12:51;102743.77;;;16.67;100.00
68712;BME280;55690;51.566;19.198;2023-09-07T06:16:57;102745.62;;;17.06;100.00
68712;BME280;55690;51.566;19.198;2023-09-07T06:21:04;102749.61;;;17.27;100.00
68712;BME280;55690;51.566;19.198;2023-09-07T06:25:09;102743.90;;;17.43;100.00
68712;BME280;55690;51.566;19.198;2023-09-07T06:29:16;102751.60;;;17.63;100.00
68712;BME280;55690;51.566;19.198;2023-09-07T06:33:22;102748.30;;;17.84;100.00
68712;BME280;55690;51.566;19.198;2023-09-07T06:37:28;102752.58;;;18.01;100.00
68712;BME280;55690;51.566;19.198;2023-09-07T06:41:34;102756.77;;;18.30;100.00
68712;BME280;55690;51.566;19.198;2023-09-07T06:45:41;102756.32;;;18.36;100.00
68712;BME280;55690;51.566;19.198;2023-09-07T06:49:47;102747.46;;;18.56;98.87
68712;BME280;55690;51.566;19.198;2023-09-07T06:53:53;102739.50;;;18.88;97.17
68712;BME280;55690;51.566;19.198;2023-09-07T06:57:59;102746.23;;;19.19;96.98
68712;BME280;55690;51.566;19.198;2023-09-07T07:02:05;102750.48;;;19.58;95.27
68712;BME280;55690;51.566;19.198;2023-09-07T07:06:11;102753.27;;;19.92;95.21
68712;BME280;55690;51.566;19.198;2023-09-07T07:10:17;102745.42;;;20.53;93.03
68712;BME280;55690;51.566;19.198;2023-09-07T07:14:23;102734.57;;;20.72;92.89
68712;BME280;55690;51.566;19.198;2023-09-07T07:18:30;102751.09;;;21.36;90.82
68712;BME280;55690;51.566;19.198;2023-09-07T07:22:36;102748.34;;;21.57;90.05
68712;BME280;55690;51.566;19.198;2023-09-07T07:26:42;102755.95;;;21.65;89.17
68712;BME280;55690;51.566;19.198;2023-09-07T07:30:48;102761.65;;;21.73;90.23
68712;BME280;55690;51.566;19.198;2023-09-07T07:34:54;102749.20;;;21.88;89.22
68712;BME280;55690;51.566;19.198;2023-09-07T07:39:02;102757.05;;;22.13;90.17
68712;BME280;55690;51.566;19.198;2023-09-07T07:43:07;102752.38;;;22.04;89.96
68712;BME280;55690;51.566;19.198;2023-09-07T07:47:13;102749.94;;;22.20;88.52
68712;BME280;55690;51.566;19.198;2023-09-07T07:51:19;102745.24;;;22.51;88.57
68712;BME280;55690;51.566;19.198;2023-09-07T07:55:25;102742.28;;;22.53;87.10
68712;BME280;55690;51.566;19.198;2023-09-07T07:59:33;102744.20;;;22.62;87.97
68712;BME280;55690;51.566;19.198;2023-09-07T08:03:37;102744.08;;;22.73;86.48
68712;BME280;55690;51.566;19.198;2023-09-07T08:07:44;102741.48;;;23.20;86.77
68712;BME280;55690;51.566;19.198;2023-09-07T08:11:50;102744.27;;;23.20;84.06
68712;BME280;55690;51.566;19.198;2023-09-07T08:15:56;102742.43;;;23.48;83.39
68712;BME280;55690;51.566;19.198;2023-09-07T08:20:02;102750.93;;;23.56;84.38
68712;BME280;55690;51.566;19.198;2023-09-07T08:24:08;102747.28;;;23.55;83.55
68712;BME280;55690;51.566;19.198;2023-09-07T08:28:14;102748.40;;;23.72;83.64
68712;BME280;55690;51.566;19.198;2023-09-07T08:32:21;102746.20;;;23.76;82.51
68712;BME280;55690;51.566;19.198;2023-09-07T08:36:27;102738.76;;;23.76;82.50
68712;BME280;55690;51.566;19.198;2023-09-07T08:40:33;102747.68;;;24.07;81.12
68712;BME280;55690;51.566;19.198;2023-09-07T08:44:42;102748.05;;;24.22;78.68
68712;BME280;55690;51.566;19.198;2023-09-07T08:48:49;102745.40;;;23.93;79.42
68712;BME280;55690;51.566;19.198;2023-09-07T08:52:52;102740.14;;;23.90;78.07
68712;BME280;55690;51.566;19.198;2023-09-07T08:56:59;102742.23;;;24.15;79.11
68712;BME280;55690;51.566;19.198;2023-09-07T09:01:04;102741.05;;;24.18;77.37
68712;BME280;55690;51.566;19.198;2023-09-07T09:05:10;102745.63;;;24.37;78.05
68712;BME280;55690;51.566;19.198;2023-09-07T09:09:21;102739.21;;;24.36;74.41
68712;BME280;55690;51.566;19.198;2023-09-07T09:13:29;102735.35;;;24.47;74.90
68712;BME280;55690;51.566;19.198;2023-09-07T09:17:31;102743.58;;;24.39;73.59
68712;BME280;55690;51.566;19.198;2023-09-07T09:21:44;102746.35;;;24.39;73.36
68712;BME280;55690;51.566;19.198;2023-09-07T09:25:43;102733.20;;;24.41;74.81
68712;BME280;55690;51.566;19.198;2023-09-07T09:29:49;102731.07;;;24.52;74.26
68712;BME280;55690;51.566;19.198;2023-09-07T09:33:53;102734.81;;;24.61;75.09
68712;BME280;55690;51.566;19.198;2023-09-07T09:38:01;102725.87;;;24.67;73.42
68712;BME280;55690;51.566;19.198;2023-09-07T09:42:05;102732.13;;;24.69;72.58
68712;BME280;55690;51.566;19.198;2023-09-07T09:46:12;102724.61;;;24.97;72.75
68712;BME280;55690;51.566;19.198;2023-09-07T09:50:18;102725.61;;;24.78;70.06
68712;BME280;55690;51.566;19.198;2023-09-07T09:54:24;102728.98;;;25.00;74.21
68712;BME280;55690;51.566;19.198;2023-09-07T09:58:30;102726.32;;;25.16;72.17
68712;BME280;55690;51.566;19.198;2023-09-07T10:02:38;102730.20;;;25.23;69.72
68712;BME280;55690;51.566;19.198;2023-09-07T10:10:56;102727.97;;;25.27;69.76
68712;BME280;55690;51.566;19.198;2023-09-07T10:14:58;102729.08;;;25.34;70.54
68712;BME280;55690;51.566;19.198;2023-09-07T10:19:01;102732.27;;;25.21;70.09
68712;BME280;55690;51.566;19.198;2023-09-07T10:23:07;102721.29;;;25.37;69.59
68712;BME280;55690;51.566;19.198;2023-09-07T10:27:13;102717.47;;;25.38;69.55
68712;BME280;55690;51.566;19.198;2023-09-07T10:31:24;102714.20;;;25.43;69.26
68712;BME280;55690;51.566;19.198;2023-09-07T10:35:26;102710.87;;;25.39;68.04
68712;BME280;55690;51.566;19.198;2023-09-07T10:39:32;102722.63;;;25.59;71.18
68712;BME280;55690;51.566;19.198;2023-09-07T10:43:49;102709.24;;;25.80;69.73
68712;BME280;55690;51.566;19.198;2023-09-07T10:47:51;102701.55;;;25.74;67.98
68712;BME280;55690;51.566;19.198;2023-09-07T10:51:53;102699.65;;;25.75;68.43
68712;BME280;55690;51.566;19.198;2023-09-07T10:56:02;102691.45;;;25.73;69.36
68712;BME280;55690;51.566;19.198;2023-09-07T11:00:06;102693.25;;;25.82;67.82
68712;BME280;55690;51.566;19.198;2023-09-07T11:04:12;102703.60;;;25.98;67.13
68712;BME280;55690;51.566;19.198;2023-09-07T11:08:15;102700.52;;;26.17;68.96
68712;BME280;55690;51.566;19.198;2023-09-07T11:12:21;102693.23;;;26.25;67.72
68712;BME280;55690;51.566;19.198;2023-09-07T11:16:29;102699.40;;;26.44;68.85
68712;BME280;55690;51.566;19.198;2023-09-07T11:20:35;102696.12;;;26.49;67.07
68712;BME280;55690;51.566;19.198;2023-09-07T11:24:39;102686.77;;;26.74;67.46
68712;BME280;55690;51.566;19.198;2023-09-07T11:28:46;102702.63;;;26.82;66.18
68712;BME280;55690;51.566;19.198;2023-09-07T11:37:04;102693.77;;;27.03;65.76
68712;BME280;55690;51.566;19.198;2023-09-07T11:41:05;102697.25;;;27.21;67.12
68712;BME280;55690;51.566;19.198;2023-09-07T11:45:10;102685.35;;;27.35;67.55
68712;BME280;55690;51.566;19.198;2023-09-07T11:49:16;102674.89;;;27.37;66.71
68712;BME280;55690;51.566;19.198;2023-09-07T11:53:22;102676.13;;;27.35;64.50
68712;BME280;55690;51.566;19.198;2023-09-07T11:57:29;102675.06;;;27.60;64.96
68712;BME280;55690;51.566;19.198;2023-09-07T12:01:35;102675.73;;;27.54;64.52
68712;BME280;55690;51.566;19.198;2023-09-07T12:05:41;102668.90;;;27.73;65.18
68712;BME280;55690;51.566;19.198;2023-09-07T12:09:47;102674.68;;;27.71;64.45
68712;BME280;55690;51.566;19.198;2023-09-07T12:13:54;102666.84;;;28.06;64.86
68712;BME280;55690;51.566;19.198;2023-09-07T12:17:59;102665.54;;;27.86;63.39
68712;BME280;55690;51.566;19.198;2023-09-07T12:22:06;102670.35;;;27.61;63.63
68712;BME280;55690;51.566;19.198;2023-09-07T12:26:13;102669.92;;;27.80;64.56
68712;BME280;55690;51.566;19.198;2023-09-07T12:30:19;102665.36;;;27.87;65.92
68712;BME280;55690;51.566;19.198;2023-09-07T12:34:24;102657.97;;;28.02;66.51
68712;BME280;55690;51.566;19.198;2023-09-07T12:38:30;102652.41;;;27.94;63.38
68712;BME280;55690;51.566;19.198;2023-09-07T12:42:37;102653.97;;;27.97;64.07
68712;BME280;55690;51.566;19.198;2023-09-07T12:46:43;102649.11;;;27.91;65.37
68712;BME280;55690;51.566;19.198;2023-09-07T12:50:49;102643.48;;;27.52;62.03
68712;BME280;55690;51.566;19.198;2023-09-07T12:54:55;102645.38;;;27.67;64.88
68712;BME280;55690;51.566;19.198;2023-09-07T12:59:01;102636.67;;;27.54;63.58
68712;BME280;55690;51.566;19.198;2023-09-07T13:03:07;102641.73;;;27.50;64.40
68712;BME280;55690;51.566;19.198;2023-09-07T13:07:13;102638.98;;;27.34;61.95
68712;BME280;55690;51.566;19.198;2023-09-07T13:11:19;102623.79;;;27.45;64.58
68712;BME280;55690;51.566;19.198;2023-09-07T13:15:25;102624.48;;;27.47;64.76
68712;BME280;55690;51.566;19.198;2023-09-07T13:19:32;102623.46;;;27.32;65.05
68712;BME280;55690;51.566;19.198;2023-09-07T13:23:38;102628.15;;;27.39;66.20
68712;BME280;55690;51.566;19.198;2023-09-07T13:27:44;102631.02;;;27.15;64.11
68712;BME280;55690;51.566;19.198;2023-09-07T13:31:50;102630.82;;;26.92;63.99
68712;BME280;55690;51.566;19.198;2023-09-07T13:35:56;102625.80;;;26.79;64.80
68712;BME280;55690;51.566;19.198;2023-09-07T13:40:06;102627.54;;;26.80;65.40
68712;BME280;55690;51.566;19.198;2023-09-07T13:44:13;102626.83;;;26.70;66.76
68712;BME280;55690;51.566;19.198;2023-09-07T13:48:17;102624.18;;;26.44;66.02
68712;BME280;55690;51.566;19.198;2023-09-07T13:52:24;102621.75;;;26.33;66.69
68712;BME280;55690;51.566;19.198;2023-09-07T13:56:29;102617.67;;;26.19;65.15
68712;BME280;55690;51.566;19.198;2023-09-07T14:00:36;102622.89;;;26.14;66.22
68712;BME280;55690;51.566;19.198;2023-09-07T14:04:42;102610.85;;;26.06;66.44
68712;BME280;55690;51.566;19.198;2023-09-07T14:08:48;102608.24;;;26.04;66.43
68712;BME280;55690;51.566;19.198;2023-09-07T14:12:54;102607.03;;;25.99;66.48
68712;BME280;55690;51.566;19.198;2023-09-07T14:17:01;102606.09;;;25.82;67.87
68712;BME280;55690;51.566;19.198;2023-09-07T14:21:06;102604.32;;;25.73;69.05
68712;BME280;55690;51.566;19.198;2023-09-07T14:25:13;102600.13;;;25.69;67.58
68712;BME280;55690;51.566;19.198;2023-09-07T14:29:19;102607.94;;;25.65;67.66
68712;BME280;55690;51.566;19.198;2023-09-07T14:33:25;102613.63;;;25.56;66.65
68712;BME280;55690;51.566;19.198;2023-09-07T14:37:31;102613.95;;;25.52;69.50
68712;BME280;55690;51.566;19.198;2023-09-07T14:41:37;102610.30;;;25.52;68.28
68712;BME280;55690;51.566;19.198;2023-09-07T14:45:47;102602.99;;;25.51;68.21
68712;BME280;55690;51.566;19.198;2023-09-07T14:49:49;102604.90;;;25.50;68.30
68712;BME280;55690;51.566;19.198;2023-09-07T14:53:56;102601.74;;;25.45;69.19
68712;BME280;55690;51.566;19.198;2023-09-07T14:58:02;102603.77;;;25.35;71.91
68712;BME280;55690;51.566;19.198;2023-09-07T15:02:08;102603.71;;;25.27;69.58
68712;BME280;55690;51.566;19.198;2023-09-07T15:06:16;102594.51;;;25.27;69.29
68712;BME280;55690;51.566;19.198;2023-09-07T15:10:20;102593.23;;;25.21;71.28
68712;BME280;55690;51.566;19.198;2023-09-07T15:14:26;102596.33;;;25.10;70.89
68712;BME280;55690;51.566;19.198;2023-09-07T15:18:33;102597.68;;;25.06;71.56
68712;BME280;55690;51.566;19.198;2023-09-07T15:22:39;102594.58;;;25.09;70.61
68712;BME280;55690;51.566;19.198;2023-09-07T15:26:45;102608.58;;;24.99;76.53
68712;BME280;55690;51.566;19.198;2023-09-07T15:30:51;102596.92;;;24.96;71.68
68712;BME280;55690;51.566;19.198;2023-09-07T15:34:57;102596.92;;;24.96;71.47
68712;BME280;55690;51.566;19.198;2023-09-07T15:39:04;102603.80;;;24.92;73.19
68712;BME280;55690;51.566;19.198;2023-09-07T15:43:10;102600.46;;;24.88;72.13
68712;BME280;55690;51.566;19.198;2023-09-07T15:47:16;102585.48;;;24.81;71.20
68712;BME280;55690;51.566;19.198;2023-09-07T15:51:22;102584.89;;;24.69;71.91
68712;BME280;55690;51.566;19.198;2023-09-07T15:55:28;102587.04;;;24.58;72.00
68712;BME280;55690;51.566;19.198;2023-09-07T15:59:34;102587.20;;;24.56;73.17
68712;BME280;55690;51.566;19.198;2023-09-07T16:03:40;102577.99;;;24.56;74.30
68712;BME280;55690;51.566;19.198;2023-09-07T16:07:46;102585.22;;;24.31;77.94
68712;BME280;55690;51.566;19.198;2023-09-07T16:11:53;102587.61;;;24.26;77.95
68712;BME280;55690;51.566;19.198;2023-09-07T16:15:59;102589.38;;;23.99;78.71
68712;BME280;55690;51.566;19.198;2023-09-07T16:20:06;102588.50;;;23.81;78.84
68712;BME280;55690;51.566;19.198;2023-09-07T16:24:11;102585.62;;;23.73;79.91
68712;BME280;55690;51.566;19.198;2023-09-07T16:28:17;102581.45;;;23.59;81.75
68712;BME280;55690;51.566;19.198;2023-09-07T16:32:23;102586.73;;;23.43;81.02
68712;BME280;55690;51.566;19.198;2023-09-07T16:36:29;102582.16;;;23.24;81.82
68712;BME280;55690;51.566;19.198;2023-09-07T16:40:36;102585.39;;;23.19;80.54
68712;BME280;55690;51.566;19.198;2023-09-07T16:44:42;102585.00;;;23.05;84.25
68712;BME280;55690;51.566;19.198;2023-09-07T16:48:48;102584.91;;;22.87;84.63
68712;BME280;55690;51.566;19.198;2023-09-07T16:52:54;102593.08;;;22.79;85.83
68712;BME280;55690;51.566;19.198;2023-09-07T16:57:00;102594.23;;;22.67;85.51
68712;BME280;55690;51.566;19.198;2023-09-07T17:01:06;102590.19;;;22.51;87.23
68712;BME280;55690;51.566;19.198;2023-09-07T17:05:13;102590.48;;;22.39;88.33
68712;BME280;55690;51.566;19.198;2023-09-07T17:09:19;102591.04;;;22.23;86.44
68712;BME280;55690;51.566;19.198;2023-09-07T17:13:25;102596.16;;;22.08;87.70
68712;BME280;55690;51.566;19.198;2023-09-07T17:17:31;102597.67;;;21.91;87.82
68712;BME280;55690;51.566;19.198;2023-09-07T17:21:37;102594.60;;;21.85;88.24
68712;BME280;55690;51.566;19.198;2023-09-07T17:25:43;102601.39;;;21.71;89.31
68712;BME280;55690;51.566;19.198;2023-09-07T17:29:50;102593.79;;;21.54;88.86
68712;BME280;55690;51.566;19.198;2023-09-07T17:33:56;102604.81;;;21.44;89.10
68712;BME280;55690;51.566;19.198;2023-09-07T17:38:02;102612.13;;;21.24;90.71
68712;BME280;55690;51.566;19.198;2023-09-07T17:42:08;102611.31;;;21.13;91.23
68712;BME280;55690;51.566;19.198;2023-09-07T17:46:14;102626.95;;;21.03;92.53
68712;BME280;55690;51.566;19.198;2023-09-07T17:50:21;102619.74;;;20.90;92.74
68712;BME280;55690;51.566;19.198;2023-09-07T17:54:27;102630.05;;;20.88;91.46
68712;BME280;55690;51.566;19.198;2023-09-07T17:58:38;102624.88;;;20.74;93.83
68712;BME280;55690;51.566;19.198;2023-09-07T18:02:40;102625.67;;;20.65;93.79
68712;BME280;55690;51.566;19.198;2023-09-07T18:06:45;102622.57;;;20.58;93.83
68712;BME280;55690;51.566;19.198;2023-09-07T18:10:51;102623.98;;;20.53;93.34
68712;BME280;55690;51.566;19.198;2023-09-07T18:14:57;102625.73;;;20.54;94.47
68712;BME280;55690;51.566;19.198;2023-09-07T18:19:04;102626.24;;;20.48;93.25
68712;BME280;55690;51.566;19.198;2023-09-07T18:23:10;102624.50;;;20.47;91.85
68712;BME280;55690;51.566;19.198;2023-09-07T18:27:16;102629.54;;;20.42;91.60
68712;BME280;55690;51.566;19.198;2023-09-07T18:31:22;102624.38;;;20.37;93.38
68712;BME280;55690;51.566;19.198;2023-09-07T18:35:29;102630.48;;;20.20;93.87
68712;BME280;55690;51.566;19.198;2023-09-07T18:39:34;102635.50;;;20.15;94.64
68712;BME280;55690;51.566;19.198;2023-09-07T18:43:41;102638.41;;;20.02;94.79
68712;BME280;55690;51.566;19.198;2023-09-07T18:47:47;102637.17;;;19.95;94.69
68712;BME280;55690;51.566;19.198;2023-09-07T18:51:54;102630.45;;;19.77;95.56
68712;BME280;55690;51.566;19.198;2023-09-07T18:56:06;102629.47;;;19.67;96.30
68712;BME280;55690;51.566;19.198;2023-09-07T19:00:08;102633.59;;;19.61;96.51
68712;BME280;55690;51.566;19.198;2023-09-07T19:04:12;102624.70;;;19.57;96.19
68712;BME280;55690;51.566;19.198;2023-09-07T19:08:18;102630.21;;;19.46;96.88
68712;BME280;55690;51.566;19.198;2023-09-07T19:12:24;102636.59;;;19.47;95.46
68712;BME280;55690;51.566;19.198;2023-09-07T19:16:30;102626.95;;;19.52;94.74
68712;BME280;55690;51.566;19.198;2023-09-07T19:20:36;102628.08;;;19.39;95.89
68712;BME280;55690;51.566;19.198;2023-09-07T19:24:42;102627.19;;;19.27;98.00
68712;BME280;55690;51.566;19.198;2023-09-07T19:28:48;102635.20;;;19.30;96.45
68712;BME280;55690;51.566;19.198;2023-09-07T19:32:54;102638.83;;;19.31;97.10
68712;BME280;55690;51.566;19.198;2023-09-07T19:37:01;102629.16;;;19.14;99.69
68712;BME280;55690;51.566;19.198;2023-09-07T19:41:07;102630.41;;;19.10;98.19
68712;BME280;55690;51.566;19.198;2023-09-07T19:45:13;102634.16;;;19.09;98.17
68712;BME280;55690;51.566;19.198;2023-09-07T19:49:19;102638.19;;;19.05;97.97
68712;BME280;55690;51.566;19.198;2023-09-07T19:53:26;102635.68;;;19.02;96.63
68712;BME280;55690;51.566;19.198;2023-09-07T19:57:31;102633.14;;;18.87;98.00
68712;BME280;55690;51.566;19.198;2023-09-07T20:05:51;102633.11;;;18.76;98.82
68712;BME280;55690;51.566;19.198;2023-09-07T20:09:53;102632.86;;;18.79;97.58
68712;BME280;55690;51.566;19.198;2023-09-07T20:13:56;102631.98;;;18.79;97.46
68712;BME280;55690;51.566;19.198;2023-09-07T20:18:03;102618.06;;;18.69;97.75
68712;BME280;55690;51.566;19.198;2023-09-07T20:22:09;102623.52;;;18.58;98.33
68712;BME280;55690;51.566;19.198;2023-09-07T20:26:15;102632.13;;;18.53;98.35
68712;BME280;55690;51.566;19.198;2023-09-07T20:30:21;102623.95;;;18.41;99.80
68712;BME280;55690;51.566;19.198;2023-09-07T20:34:27;102617.92;;;18.36;98.59
68712;BME280;55690;51.566;19.198;2023-09-07T20:38:34;102618.80;;;18.36;98.72
68712;BME280;55690;51.566;19.198;2023-09-07T20:42:39;102616.53;;;18.06;100.00
68712;BME280;55690;51.566;19.198;2023-09-07T20:46:45;102610.05;;;18.07;99.64
68712;BME280;55690;51.566;19.198;2023-09-07T20:50:52;102615.23;;;17.99;100.00
68712;BME280;55690;51.566;19.198;2023-09-07T20:54:58;102617.98;;;17.99;100.00
68712;BME280;55690;51.566;19.198;2023-09-07T20:59:04;102614.82;;;17.92;100.00
68712;BME280;55690;51.566;19.198;2023-09-07T21:03:10;102624.40;;;17.87;100.00
68712;BME280;55690;51.566;19.198;2023-09-07T21:07:16;102628.26;;;17.84;100.00
68712;BME280;55690;51.566;19.198;2023-09-07T21:11:23;102626.39;;;17.85;100.00
68712;BME280;55690;51.566;19.198;2023-09-07T21:15:29;102628.32;;;17.72;100.00